Shakespeare, Alabama
Current Conditions -  °F | °C
As of 8:58 AM on Friday 24 Oct 2014 (Local Time) from KMXF Reporting Station
Broken Clouds Broken Clouds  
Wind Chill: 55°   Ceiling: 16000
Heat Index: 55°   Visibility: 10mi
Dew Point: 52°   Wind: 2mph
Humidity: 91%   Direction: 270°W
Pressure: 30.11"   Gusts: NA
Location:  32.3665°N, 86.2999°W
Report Text: KMXF 241358Z AUTO 27002KT 10SM BKN160 13/11 A3011 RMK AO2 SLP199 T01260112
Loading
Personal Weather Stations






























Interactive Weather Map
Tropical Storm Tracking
New forecast layout! Learn more

10-Day Weather Forecast

Advertisements
Track Severe Weather on mobile